sensor_id;sensor_type;location;lat;lon;timestamp;P1;durP1;ratioP1;P2;durP2;ratioP2
47103;SDS011;32853;52.164;5.400;2023-08-06T00:04:17;11.95;;;4.55;;
47103;SDS011;32853;52.164;5.400;2023-08-06T00:06:46;5.68;;;4.28;;
47103;SDS011;32853;52.164;5.400;2023-08-06T00:09:14;10.10;;;4.43;;
47103;SDS011;32853;52.164;5.400;2023-08-06T00:14:19;9.95;;;4.25;;
47103;SDS011;32853;52.164;5.400;2023-08-06T00:16:49;10.75;;;4.78;;
47103;SDS011;32853;52.164;5.400;2023-08-06T00:19:15;6.30;;;4.88;;
47103;SDS011;32853;52.164;5.400;2023-08-06T00:21:40;6.00;;;4.10;;
47103;SDS011;32853;52.164;5.400;2023-08-06T00:24:08;8.18;;;5.53;;
47103;SDS011;32853;52.164;5.400;2023-08-06T00:26:34;7.28;;;3.65;;
47103;SDS011;32853;52.164;5.400;2023-08-06T00:29:00;8.15;;;4.47;;
47103;SDS011;32853;52.164;5.400;2023-08-06T00:31:28;7.10;;;3.88;;
47103;SDS011;32853;52.164;5.400;2023-08-06T00:34:04;6.97;;;4.35;;
47103;SDS011;32853;52.164;5.400;2023-08-06T00:36:29;7.38;;;3.90;;
47103;SDS011;32853;52.164;5.400;2023-08-06T00:39:11;7.50;;;3.33;;
47103;SDS011;32853;52.164;5.400;2023-08-06T00:41:39;6.57;;;4.20;;
47103;SDS011;32853;52.164;5.400;2023-08-06T00:44:04;8.07;;;3.60;;
47103;SDS011;32853;52.164;5.400;2023-08-06T00:51:43;9.07;;;3.25;;
47103;SDS011;32853;52.164;5.400;2023-08-06T00:54:09;9.98;;;5.47;;
47103;SDS011;32853;52.164;5.400;2023-08-06T00:56:35;8.48;;;4.05;;
47103;SDS011;32853;52.164;5.400;2023-08-06T00:59:02;6.18;;;3.83;;
47103;SDS011;32853;52.164;5.400;2023-08-06T01:01:28;13.65;;;4.18;;
47103;SDS011;32853;52.164;5.400;2023-08-06T01:03:54;5.05;;;4.18;;
47103;SDS011;32853;52.164;5.400;2023-08-06T01:06:19;11.15;;;4.57;;
47103;SDS011;32853;52.164;5.400;2023-08-06T01:08:58;6.68;;;4.10;;
47103;SDS011;32853;52.164;5.400;2023-08-06T01:14:12;5.60;;;3.78;;
47103;SDS011;32853;52.164;5.400;2023-08-06T01:16:45;8.68;;;4.70;;
47103;SDS011;32853;52.164;5.400;2023-08-06T01:19:23;9.35;;;5.65;;
47103;SDS011;32853;52.164;5.400;2023-08-06T01:21:49;12.23;;;5.22;;
47103;SDS011;32853;52.164;5.400;2023-08-06T01:24:21;9.95;;;5.32;;
47103;SDS011;32853;52.164;5.400;2023-08-06T01:29:41;7.38;;;5.10;;
47103;SDS011;32853;52.164;5.400;2023-08-06T01:32:12;9.50;;;5.70;;
47103;SDS011;32853;52.164;5.400;2023-08-06T01:34:41;6.90;;;5.07;;
47103;SDS011;32853;52.164;5.400;2023-08-06T01:37:09;9.02;;;5.13;;
47103;SDS011;32853;52.164;5.400;2023-08-06T01:39:36;7.40;;;5.07;;
47103;SDS011;32853;52.164;5.400;2023-08-06T01:42:01;8.20;;;4.65;;
47103;SDS011;32853;52.164;5.400;2023-08-06T01:44:27;8.18;;;5.40;;
47103;SDS011;32853;52.164;5.400;2023-08-06T01:46:52;9.50;;;5.15;;
47103;SDS011;32853;52.164;5.400;2023-08-06T01:49:18;10.27;;;5.55;;
47103;SDS011;32853;52.164;5.400;2023-08-06T01:51:43;12.30;;;5.63;;
47103;SDS011;32853;52.164;5.400;2023-08-06T01:54:08;8.68;;;5.82;;
47103;SDS011;32853;52.164;5.400;2023-08-06T01:56:34;11.75;;;6.68;;
47103;SDS011;32853;52.164;5.400;2023-08-06T01:58:59;13.27;;;5.97;;
47103;SDS011;32853;52.164;5.400;2023-08-06T02:01:24;13.75;;;6.40;;
47103;SDS011;32853;52.164;5.400;2023-08-06T02:03:50;10.25;;;6.22;;
47103;SDS011;32853;52.164;5.400;2023-08-06T02:06:15;14.25;;;6.13;;
47103;SDS011;32853;52.164;5.400;2023-08-06T02:08:41;14.48;;;6.90;;
47103;SDS011;32853;52.164;5.400;2023-08-06T02:11:06;12.82;;;6.90;;
47103;SDS011;32853;52.164;5.400;2023-08-06T02:13:32;11.30;;;6.20;;
47103;SDS011;32853;52.164;5.400;2023-08-06T02:15:57;10.23;;;6.82;;
47103;SDS011;32853;52.164;5.400;2023-08-06T02:18:22;11.80;;;6.75;;
47103;SDS011;32853;52.164;5.400;2023-08-06T02:21:00;11.77;;;6.70;;
47103;SDS011;32853;52.164;5.400;2023-08-06T02:23:25;9.85;;;6.68;;
47103;SDS011;32853;52.164;5.400;2023-08-06T02:25:58;9.18;;;6.15;;
47103;SDS011;32853;52.164;5.400;2023-08-06T02:28:24;13.93;;;6.18;;
47103;SDS011;32853;52.164;5.400;2023-08-06T02:30:50;10.50;;;6.60;;
47103;SDS011;32853;52.164;5.400;2023-08-06T02:33:16;13.95;;;7.40;;
47103;SDS011;32853;52.164;5.400;2023-08-06T02:35:42;12.32;;;7.05;;
47103;SDS011;32853;52.164;5.400;2023-08-06T02:38:08;9.23;;;6.68;;
47103;SDS011;32853;52.164;5.400;2023-08-06T02:40:35;15.75;;;6.85;;
47103;SDS011;32853;52.164;5.400;2023-08-06T02:43:00;12.90;;;6.45;;
47103;SDS011;32853;52.164;5.400;2023-08-06T02:45:26;16.60;;;6.43;;
47103;SDS011;32853;52.164;5.400;2023-08-06T02:47:51;9.82;;;6.32;;
47103;SDS011;32853;52.164;5.400;2023-08-06T02:50:16;12.48;;;6.72;;
47103;SDS011;32853;52.164;5.400;2023-08-06T02:52:41;8.73;;;6.15;;
47103;SDS011;32853;52.164;5.400;2023-08-06T02:55:08;9.45;;;6.50;;
47103;SDS011;32853;52.164;5.400;2023-08-06T02:57:36;9.43;;;5.18;;
47103;SDS011;32853;52.164;5.400;2023-08-06T03:02:31;9.32;;;5.40;;
47103;SDS011;32853;52.164;5.400;2023-08-06T03:04:56;13.32;;;5.65;;
47103;SDS011;32853;52.164;5.400;2023-08-06T03:07:22;7.65;;;3.88;;
47103;SDS011;32853;52.164;5.400;2023-08-06T03:09:55;7.25;;;5.38;;
47103;SDS011;32853;52.164;5.400;2023-08-06T03:15:05;5.85;;;4.43;;
47103;SDS011;32853;52.164;5.400;2023-08-06T03:17:33;8.40;;;5.28;;
47103;SDS011;32853;52.164;5.400;2023-08-06T03:20:01;9.63;;;4.95;;
47103;SDS011;32853;52.164;5.400;2023-08-06T03:27:48;12.32;;;4.82;;
47103;SDS011;32853;52.164;5.400;2023-08-06T03:36:07;9.25;;;4.47;;
47103;SDS011;32853;52.164;5.400;2023-08-06T03:38:32;8.48;;;4.75;;
47103;SDS011;32853;52.164;5.400;2023-08-06T03:41:02;6.57;;;3.67;;
47103;SDS011;32853;52.164;5.400;2023-08-06T03:43:28;4.95;;;3.33;;
47103;SDS011;32853;52.164;5.400;2023-08-06T03:45:58;5.68;;;3.38;;
47103;SDS011;32853;52.164;5.400;2023-08-06T03:48:23;9.85;;;3.83;;
47103;SDS011;32853;52.164;5.400;2023-08-06T03:50:49;8.25;;;3.35;;
47103;SDS011;32853;52.164;5.400;2023-08-06T03:53:21;7.38;;;4.20;;
47103;SDS011;32853;52.164;5.400;2023-08-06T03:55:46;6.32;;;4.15;;
47103;SDS011;32853;52.164;5.400;2023-08-06T03:58:13;11.82;;;4.85;;
47103;SDS011;32853;52.164;5.400;2023-08-06T04:00:39;8.25;;;4.18;;
47103;SDS011;32853;52.164;5.400;2023-08-06T04:03:04;7.13;;;5.22;;
47103;SDS011;32853;52.164;5.400;2023-08-06T04:05:36;9.18;;;4.93;;
47103;SDS011;32853;52.164;5.400;2023-08-06T04:08:05;8.83;;;5.80;;
47103;SDS011;32853;52.164;5.400;2023-08-06T04:10:30;13.90;;;6.38;;
47103;SDS011;32853;52.164;5.400;2023-08-06T04:12:55;13.48;;;6.88;;
47103;SDS011;32853;52.164;5.400;2023-08-06T04:15:23;13.30;;;6.70;;
47103;SDS011;32853;52.164;5.400;2023-08-06T04:17:59;9.73;;;6.57;;
47103;SDS011;32853;52.164;5.400;2023-08-06T04:20:25;17.00;;;7.70;;
47103;SDS011;32853;52.164;5.400;2023-08-06T04:22:51;10.07;;;6.85;;
47103;SDS011;32853;52.164;5.400;2023-08-06T04:25:22;11.32;;;7.45;;
47103;SDS011;32853;52.164;5.400;2023-08-06T04:27:51;13.27;;;8.35;;
47103;SDS011;32853;52.164;5.400;2023-08-06T04:30:16;13.02;;;7.30;;
47103;SDS011;32853;52.164;5.400;2023-08-06T04:32:46;16.35;;;9.07;;
47103;SDS011;32853;52.164;5.400;2023-08-06T04:35:17;18.95;;;8.27;;
47103;SDS011;32853;52.164;5.400;2023-08-06T04:37:48;13.57;;;8.23;;
47103;SDS011;32853;52.164;5.400;2023-08-06T04:42:50;12.63;;;8.73;;
47103;SDS011;32853;52.164;5.400;2023-08-06T04:47:53;15.77;;;9.13;;
47103;SDS011;32853;52.164;5.400;2023-08-06T04:50:19;16.55;;;9.02;;
47103;SDS011;32853;52.164;5.400;2023-08-06T04:52:53;14.65;;;9.20;;
47103;SDS011;32853;52.164;5.400;2023-08-06T04:55:23;18.35;;;9.25;;
47103;SDS011;32853;52.164;5.400;2023-08-06T04:57:57;18.98;;;10.13;;
47103;SDS011;32853;52.164;5.400;2023-08-06T05:00:24;20.92;;;10.77;;
47103;SDS011;32853;52.164;5.400;2023-08-06T05:02:49;21.02;;;11.75;;
47103;SDS011;32853;52.164;5.400;2023-08-06T05:05:14;19.98;;;12.20;;
47103;SDS011;32853;52.164;5.400;2023-08-06T05:07:40;20.40;;;10.50;;
47103;SDS011;32853;52.164;5.400;2023-08-06T05:10:05;16.75;;;11.05;;
47103;SDS011;32853;52.164;5.400;2023-08-06T05:20:44;23.15;;;11.75;;
47103;SDS011;32853;52.164;5.400;2023-08-06T05:23:17;22.30;;;12.65;;
47103;SDS011;32853;52.164;5.400;2023-08-06T05:28:21;25.30;;;11.82;;
47103;SDS011;32853;52.164;5.400;2023-08-06T05:33:40;19.75;;;11.75;;
47103;SDS011;32853;52.164;5.400;2023-08-06T05:36:05;22.67;;;11.02;;
47103;SDS011;32853;52.164;5.400;2023-08-06T05:38:34;22.58;;;11.93;;
47103;SDS011;32853;52.164;5.400;2023-08-06T05:43:44;21.30;;;12.65;;
47103;SDS011;32853;52.164;5.400;2023-08-06T05:46:10;20.50;;;11.88;;
47103;SDS011;32853;52.164;5.400;2023-08-06T05:48:35;21.55;;;12.98;;
47103;SDS011;32853;52.164;5.400;2023-08-06T05:51:01;22.38;;;12.77;;
47103;SDS011;32853;52.164;5.400;2023-08-06T05:53:26;18.52;;;10.65;;
47103;SDS011;32853;52.164;5.400;2023-08-06T05:55:51;22.55;;;12.45;;
47103;SDS011;32853;52.164;5.400;2023-08-06T05:58:18;20.48;;;10.90;;
47103;SDS011;32853;52.164;5.400;2023-08-06T06:03:39;18.33;;;11.27;;
47103;SDS011;32853;52.164;5.400;2023-08-06T06:06:04;23.63;;;11.90;;
47103;SDS011;32853;52.164;5.400;2023-08-06T06:08:30;18.52;;;11.38;;
47103;SDS011;32853;52.164;5.400;2023-08-06T06:11:05;24.20;;;12.60;;
47103;SDS011;32853;52.164;5.400;2023-08-06T06:13:50;19.10;;;11.20;;
47103;SDS011;32853;52.164;5.400;2023-08-06T06:16:31;19.45;;;11.45;;
47103;SDS011;32853;52.164;5.400;2023-08-06T06:19:07;24.85;;;14.25;;
47103;SDS011;32853;52.164;5.400;2023-08-06T06:21:32;17.38;;;10.98;;
47103;SDS011;32853;52.164;5.400;2023-08-06T06:23:57;18.80;;;11.85;;
47103;SDS011;32853;52.164;5.400;2023-08-06T06:26:28;17.95;;;10.95;;
47103;SDS011;32853;52.164;5.400;2023-08-06T06:28:54;21.88;;;11.63;;
47103;SDS011;32853;52.164;5.400;2023-08-06T06:31:19;21.65;;;12.18;;
47103;SDS011;32853;52.164;5.400;2023-08-06T06:33:49;24.15;;;10.40;;
47103;SDS011;32853;52.164;5.400;2023-08-06T06:38:54;21.45;;;10.60;;
47103;SDS011;32853;52.164;5.400;2023-08-06T06:41:31;14.73;;;9.75;;
47103;SDS011;32853;52.164;5.400;2023-08-06T06:43:58;19.30;;;10.10;;
47103;SDS011;32853;52.164;5.400;2023-08-06T06:46:30;13.32;;;8.95;;
47103;SDS011;32853;52.164;5.400;2023-08-06T06:48:56;14.93;;;9.93;;
47103;SDS011;32853;52.164;5.400;2023-08-06T06:51:21;17.85;;;9.90;;
47103;SDS011;32853;52.164;5.400;2023-08-06T06:53:49;19.17;;;10.93;;
47103;SDS011;32853;52.164;5.400;2023-08-06T06:56:14;18.08;;;9.75;;
47103;SDS011;32853;52.164;5.400;2023-08-06T06:58:39;22.40;;;10.48;;
47103;SDS011;32853;52.164;5.400;2023-08-06T07:01:07;17.52;;;10.38;;
47103;SDS011;32853;52.164;5.400;2023-08-06T07:03:32;18.83;;;10.88;;
47103;SDS011;32853;52.164;5.400;2023-08-06T07:06:04;20.63;;;10.90;;
47103;SDS011;32853;52.164;5.400;2023-08-06T07:11:05;21.13;;;10.07;;
47103;SDS011;32853;52.164;5.400;2023-08-06T07:13:44;21.15;;;9.77;;
47103;SDS011;32853;52.164;5.400;2023-08-06T07:16:27;19.23;;;10.02;;
47103;SDS011;32853;52.164;5.400;2023-08-06T07:19:03;15.80;;;10.48;;
47103;SDS011;32853;52.164;5.400;2023-08-06T07:21:29;18.05;;;11.05;;
47103;SDS011;32853;52.164;5.400;2023-08-06T07:23:55;17.83;;;9.98;;
47103;SDS011;32853;52.164;5.400;2023-08-06T07:26:20;20.45;;;11.07;;
47103;SDS011;32853;52.164;5.400;2023-08-06T07:28:47;17.95;;;10.02;;
47103;SDS011;32853;52.164;5.400;2023-08-06T07:31:15;16.33;;;10.60;;
47103;SDS011;32853;52.164;5.400;2023-08-06T07:33:41;17.95;;;11.05;;
47103;SDS011;32853;52.164;5.400;2023-08-06T07:36:13;21.98;;;11.00;;
47103;SDS011;32853;52.164;5.400;2023-08-06T07:38:51;16.35;;;10.50;;
47103;SDS011;32853;52.164;5.400;2023-08-06T07:41:27;17.88;;;12.05;;
47103;SDS011;32853;52.164;5.400;2023-08-06T07:43:54;20.55;;;11.43;;
47103;SDS011;32853;52.164;5.400;2023-08-06T07:46:25;19.33;;;10.68;;
47103;SDS011;32853;52.164;5.400;2023-08-06T07:48:51;19.03;;;9.77;;
47103;SDS011;32853;52.164;5.400;2023-08-06T07:51:19;16.85;;;10.23;;
47103;SDS011;32853;52.164;5.400;2023-08-06T07:53:44;18.08;;;10.10;;
47103;SDS011;32853;52.164;5.400;2023-08-06T07:56:10;17.40;;;10.75;;
47103;SDS011;32853;52.164;5.400;2023-08-06T07:58:35;17.75;;;10.43;;
47103;SDS011;32853;52.164;5.400;2023-08-06T08:01:01;17.27;;;10.60;;
47103;SDS011;32853;52.164;5.400;2023-08-06T08:03:30;19.60;;;10.70;;
47103;SDS011;32853;52.164;5.400;2023-08-06T08:06:07;19.63;;;10.95;;
47103;SDS011;32853;52.164;5.400;2023-08-06T08:08:32;21.20;;;9.25;;
47103;SDS011;32853;52.164;5.400;2023-08-06T08:10:59;18.75;;;11.75;;
47103;SDS011;32853;52.164;5.400;2023-08-06T08:13:25;16.13;;;9.77;;
47103;SDS011;32853;52.164;5.400;2023-08-06T08:15:55;19.35;;;10.23;;
47103;SDS011;32853;52.164;5.400;2023-08-06T08:18:22;17.77;;;9.82;;
47103;SDS011;32853;52.164;5.400;2023-08-06T08:20:47;15.40;;;9.32;;
47103;SDS011;32853;52.164;5.400;2023-08-06T08:23:13;18.27;;;8.57;;
47103;SDS011;32853;52.164;5.400;2023-08-06T08:25:38;13.93;;;8.20;;
47103;SDS011;32853;52.164;5.400;2023-08-06T08:28:03;8.32;;;5.32;;
47103;SDS011;32853;52.164;5.400;2023-08-06T08:30:29;6.53;;;4.70;;
47103;SDS011;32853;52.164;5.400;2023-08-06T08:32:59;26.75;;;3.95;;
47103;SDS011;32853;52.164;5.400;2023-08-06T08:35:25;4.30;;;2.53;;
47103;SDS011;32853;52.164;5.400;2023-08-06T08:37:50;2.67;;;1.38;;
47103;SDS011;32853;52.164;5.400;2023-08-06T08:40:16;2.30;;;1.10;;
47103;SDS011;32853;52.164;5.400;2023-08-06T08:42:42;1.55;;;1.00;;
47103;SDS011;32853;52.164;5.400;2023-08-06T08:45:11;3.22;;;1.20;;
47103;SDS011;32853;52.164;5.400;2023-08-06T08:47:42;2.15;;;0.80;;
47103;SDS011;32853;52.164;5.400;2023-08-06T08:50:12;1.42;;;0.73;;
47103;SDS011;32853;52.164;5.400;2023-08-06T08:52:39;1.05;;;0.70;;
47103;SDS011;32853;52.164;5.400;2023-08-06T08:55:08;2.05;;;0.90;;
47103;SDS011;32853;52.164;5.400;2023-08-06T08:57:34;3.20;;;0.75;;
47103;SDS011;32853;52.164;5.400;2023-08-06T09:00:08;4.22;;;1.02;;
47103;SDS011;32853;52.164;5.400;2023-08-06T09:02:33;3.63;;;1.00;;
47103;SDS011;32853;52.164;5.400;2023-08-06T09:04:59;1.15;;;0.70;;
47103;SDS011;32853;52.164;5.400;2023-08-06T09:07:28;1.05;;;0.80;;
47103;SDS011;32853;52.164;5.400;2023-08-06T09:09:57;2.25;;;1.13;;
47103;SDS011;32853;52.164;5.400;2023-08-06T09:12:24;2.33;;;0.88;;
47103;SDS011;32853;52.164;5.400;2023-08-06T09:14:50;2.63;;;0.90;;
47103;SDS011;32853;52.164;5.400;2023-08-06T09:17:16;3.28;;;1.05;;
47103;SDS011;32853;52.164;5.400;2023-08-06T09:19:44;1.30;;;0.95;;
47103;SDS011;32853;52.164;5.400;2023-08-06T09:22:12;1.90;;;0.95;;
47103;SDS011;32853;52.164;5.400;2023-08-06T09:24:41;2.40;;;1.25;;
47103;SDS011;32853;52.164;5.400;2023-08-06T09:27:14;2.75;;;1.25;;
47103;SDS011;32853;52.164;5.400;2023-08-06T09:29:43;2.80;;;1.63;;
47103;SDS011;32853;52.164;5.400;2023-08-06T09:32:10;3.00;;;1.20;;
47103;SDS011;32853;52.164;5.400;2023-08-06T09:34:38;2.45;;;1.40;;
47103;SDS011;32853;52.164;5.400;2023-08-06T09:37:05;4.32;;;1.38;;
47103;SDS011;32853;52.164;5.400;2023-08-06T09:39:31;2.90;;;1.85;;
47103;SDS011;32853;52.164;5.400;2023-08-06T09:41:57;4.30;;;1.92;;
47103;SDS011;32853;52.164;5.400;2023-08-06T09:44:24;3.67;;;1.98;;
47103;SDS011;32853;52.164;5.400;2023-08-06T09:46:54;4.15;;;2.08;;
47103;SDS011;32853;52.164;5.400;2023-08-06T09:49:25;3.28;;;1.98;;
47103;SDS011;32853;52.164;5.400;2023-08-06T09:51:52;3.88;;;2.55;;
47103;SDS011;32853;52.164;5.400;2023-08-06T09:54:20;4.68;;;2.15;;
47103;SDS011;32853;52.164;5.400;2023-08-06T09:56:48;3.50;;;2.35;;
47103;SDS011;32853;52.164;5.400;2023-08-06T09:59:13;3.92;;;2.28;;
47103;SDS011;32853;52.164;5.400;2023-08-06T10:01:40;6.72;;;2.63;;
47103;SDS011;32853;52.164;5.400;2023-08-06T10:04:06;4.38;;;2.30;;
47103;SDS011;32853;52.164;5.400;2023-08-06T10:06:37;7.45;;;2.88;;
47103;SDS011;32853;52.164;5.400;2023-08-06T10:09:06;5.72;;;2.70;;
47103;SDS011;32853;52.164;5.400;2023-08-06T10:11:33;8.25;;;2.80;;
47103;SDS011;32853;52.164;5.400;2023-08-06T10:14:04;5.22;;;2.80;;
47103;SDS011;32853;52.164;5.400;2023-08-06T10:16:36;8.23;;;2.47;;
47103;SDS011;32853;52.164;5.400;2023-08-06T10:19:07;6.40;;;3.10;;
47103;SDS011;32853;52.164;5.400;2023-08-06T10:21:38;5.70;;;3.47;;
47103;SDS011;32853;52.164;5.400;2023-08-06T10:24:08;8.57;;;2.95;;
47103;SDS011;32853;52.164;5.400;2023-08-06T10:26:41;4.57;;;3.10;;
47103;SDS011;32853;52.164;5.400;2023-08-06T10:32:04;5.57;;;2.92;;
47103;SDS011;32853;52.164;5.400;2023-08-06T10:37:36;7.13;;;2.88;;
47103;SDS011;32853;52.164;5.400;2023-08-06T10:40:21;11.30;;;3.88;;
47103;SDS011;32853;52.164;5.400;2023-08-06T10:42:53;7.50;;;2.85;;
47103;SDS011;32853;52.164;5.400;2023-08-06T10:45:21;5.22;;;2.67;;
47103;SDS011;32853;52.164;5.400;2023-08-06T10:47:49;7.55;;;3.03;;
47103;SDS011;32853;52.164;5.400;2023-08-06T10:52:46;8.43;;;2.67;;
47103;SDS011;32853;52.164;5.400;2023-08-06T10:55:26;5.72;;;2.28;;
47103;SDS011;32853;52.164;5.400;2023-08-06T10:57:55;4.60;;;2.35;;
47103;SDS011;32853;52.164;5.400;2023-08-06T11:00:22;8.32;;;2.03;;
47103;SDS011;32853;52.164;5.400;2023-08-06T11:02:48;2.83;;;2.15;;
47103;SDS011;32853;52.164;5.400;2023-08-06T11:05:24;8.30;;;2.78;;
47103;SDS011;32853;52.164;5.400;2023-08-06T11:07:52;4.43;;;1.83;;
47103;SDS011;32853;52.164;5.400;2023-08-06T11:10:21;5.68;;;1.48;;
47103;SDS011;32853;52.164;5.400;2023-08-06T11:12:47;5.10;;;1.60;;
47103;SDS011;32853;52.164;5.400;2023-08-06T11:15:14;6.88;;;1.65;;
47103;SDS011;32853;52.164;5.400;2023-08-06T11:17:44;5.90;;;1.60;;
47103;SDS011;32853;52.164;5.400;2023-08-06T11:20:10;4.97;;;1.70;;
47103;SDS011;32853;52.164;5.400;2023-08-06T11:22:42;2.70;;;1.40;;
47103;SDS011;32853;52.164;5.400;2023-08-06T11:27:42;4.50;;;1.52;;
47103;SDS011;32853;52.164;5.400;2023-08-06T11:30:14;4.35;;;1.52;;
47103;SDS011;32853;52.164;5.400;2023-08-06T11:32:45;5.82;;;1.83;;
47103;SDS011;32853;52.164;5.400;2023-08-06T11:35:12;3.78;;;1.30;;
47103;SDS011;32853;52.164;5.400;2023-08-06T11:37:38;2.88;;;1.40;;
47103;SDS011;32853;52.164;5.400;2023-08-06T11:40:08;2.35;;;1.02;;
47103;SDS011;32853;52.164;5.400;2023-08-06T11:42:36;2.20;;;0.85;;
47103;SDS011;32853;52.164;5.400;2023-08-06T11:45:02;3.80;;;1.30;;
47103;SDS011;32853;52.164;5.400;2023-08-06T11:47:28;1.73;;;0.90;;
47103;SDS011;32853;52.164;5.400;2023-08-06T11:49:53;2.65;;;0.80;;
47103;SDS011;32853;52.164;5.400;2023-08-06T11:52:20;5.10;;;1.10;;
47103;SDS011;32853;52.164;5.400;2023-08-06T11:55:09;2.90;;;0.95;;
47103;SDS011;32853;52.164;5.400;2023-08-06T11:57:45;2.47;;;1.00;;
47103;SDS011;32853;52.164;5.400;2023-08-06T12:00:12;2.72;;;1.15;;
47103;SDS011;32853;52.164;5.400;2023-08-06T12:02:56;3.20;;;1.30;;
47103;SDS011;32853;52.164;5.400;2023-08-06T12:05:37;2.00;;;0.88;;
47103;SDS011;32853;52.164;5.400;2023-08-06T12:08:08;8.52;;;1.90;;
47103;SDS011;32853;52.164;5.400;2023-08-06T12:10:50;2.55;;;1.23;;
47103;SDS011;32853;52.164;5.400;2023-08-06T12:13:26;2.05;;;0.80;;
47103;SDS011;32853;52.164;5.400;2023-08-06T12:15:53;2.38;;;0.68;;
47103;SDS011;32853;52.164;5.400;2023-08-06T12:18:19;2.75;;;1.05;;
47103;SDS011;32853;52.164;5.400;2023-08-06T12:20:53;2.33;;;1.10;;
47103;SDS011;32853;52.164;5.400;2023-08-06T12:23:28;4.75;;;0.95;;
47103;SDS011;32853;52.164;5.400;2023-08-06T12:25:53;2.05;;;0.73;;
47103;SDS011;32853;52.164;5.400;2023-08-06T12:28:32;4.07;;;0.82;;
47103;SDS011;32853;52.164;5.400;2023-08-06T12:30:59;6.95;;;0.90;;
47103;SDS011;32853;52.164;5.400;2023-08-06T12:33:30;3.53;;;0.70;;
47103;SDS011;32853;52.164;5.400;2023-08-06T12:36:08;2.40;;;1.23;;
47103;SDS011;32853;52.164;5.400;2023-08-06T12:38:37;2.78;;;1.02;;
47103;SDS011;32853;52.164;5.400;2023-08-06T12:41:02;2.15;;;0.60;;
47103;SDS011;32853;52.164;5.400;2023-08-06T12:46:08;6.57;;;0.90;;
47103;SDS011;32853;52.164;5.400;2023-08-06T12:48:49;3.58;;;1.40;;
47103;SDS011;32853;52.164;5.400;2023-08-06T12:51:15;3.78;;;0.90;;
47103;SDS011;32853;52.164;5.400;2023-08-06T12:53:41;3.70;;;0.77;;
47103;SDS011;32853;52.164;5.400;2023-08-06T12:56:06;2.83;;;1.00;;
47103;SDS011;32853;52.164;5.400;2023-08-06T12:58:35;7.38;;;1.05;;
47103;SDS011;32853;52.164;5.400;2023-08-06T13:01:08;7.05;;;2.08;;
47103;SDS011;32853;52.164;5.400;2023-08-06T13:03:51;2.78;;;0.80;;
47103;SDS011;32853;52.164;5.400;2023-08-06T13:06:16;2.78;;;1.00;;
47103;SDS011;32853;52.164;5.400;2023-08-06T13:08:42;2.80;;;0.80;;
47103;SDS011;32853;52.164;5.400;2023-08-06T13:11:08;2.92;;;1.00;;
47103;SDS011;32853;52.164;5.400;2023-08-06T13:13:34;2.50;;;0.73;;
47103;SDS011;32853;52.164;5.400;2023-08-06T13:15:59;3.67;;;1.17;;
47103;SDS011;32853;52.164;5.400;2023-08-06T13:18:25;3.63;;;1.23;;
47103;SDS011;32853;52.164;5.400;2023-08-06T13:20:52;4.70;;;1.40;;
47103;SDS011;32853;52.164;5.400;2023-08-06T13:23:19;5.20;;;0.90;;
47103;SDS011;32853;52.164;5.400;2023-08-06T13:25:44;2.47;;;1.15;;
47103;SDS011;32853;52.164;5.400;2023-08-06T13:28:10;2.33;;;1.10;;
47103;SDS011;32853;52.164;5.400;2023-08-06T13:30:41;3.38;;;1.85;;
47103;SDS011;32853;52.164;5.400;2023-08-06T13:33:10;4.95;;;1.02;;
47103;SDS011;32853;52.164;5.400;2023-08-06T13:35:43;6.57;;;1.20;;
47103;SDS011;32853;52.164;5.400;2023-08-06T13:38:09;3.05;;;1.23;;
47103;SDS011;32853;52.164;5.400;2023-08-06T13:40:34;2.92;;;1.40;;
47103;SDS011;32853;52.164;5.400;2023-08-06T13:43:00;1.90;;;0.85;;
47103;SDS011;32853;52.164;5.400;2023-08-06T13:45:31;5.05;;;1.33;;
47103;SDS011;32853;52.164;5.400;2023-08-06T13:47:57;3.42;;;1.20;;
47103;SDS011;32853;52.164;5.400;2023-08-06T13:50:22;3.75;;;1.40;;
47103;SDS011;32853;52.164;5.400;2023-08-06T13:52:50;7.57;;;1.45;;
47103;SDS011;32853;52.164;5.400;2023-08-06T13:55:16;3.13;;;1.65;;
47103;SDS011;32853;52.164;5.400;2023-08-06T13:57:41;3.75;;;1.48;;
47103;SDS011;32853;52.164;5.400;2023-08-06T14:00:07;2.45;;;1.35;;
47103;SDS011;32853;52.164;5.400;2023-08-06T14:02:32;2.28;;;1.05;;
47103;SDS011;32853;52.164;5.400;2023-08-06T14:04:59;3.20;;;1.38;;
47103;SDS011;32853;52.164;5.400;2023-08-06T14:07:24;8.15;;;1.20;;
47103;SDS011;32853;52.164;5.400;2023-08-06T14:09:50;3.15;;;1.27;;
47103;SDS011;32853;52.164;5.400;2023-08-06T14:12:15;2.50;;;1.33;;
47103;SDS011;32853;52.164;5.400;2023-08-06T14:14:40;3.60;;;0.90;;
47103;SDS011;32853;52.164;5.400;2023-08-06T14:17:06;1.77;;;0.80;;
47103;SDS011;32853;52.164;5.400;2023-08-06T14:19:31;2.80;;;0.90;;
47103;SDS011;32853;52.164;5.400;2023-08-06T14:21:57;2.17;;;1.00;;
47103;SDS011;32853;52.164;5.400;2023-08-06T14:24:22;5.45;;;0.93;;
47103;SDS011;32853;52.164;5.400;2023-08-06T14:26:52;1.92;;;0.93;;
47103;SDS011;32853;52.164;5.400;2023-08-06T14:29:17;1.83;;;0.88;;
47103;SDS011;32853;52.164;5.400;2023-08-06T14:31:42;3.20;;;1.10;;
47103;SDS011;32853;52.164;5.400;2023-08-06T14:34:11;4.50;;;1.35;;
47103;SDS011;32853;52.164;5.400;2023-08-06T14:36:37;4.90;;;1.00;;
47103;SDS011;32853;52.164;5.400;2023-08-06T14:39:02;2.45;;;1.20;;
47103;SDS011;32853;52.164;5.400;2023-08-06T14:41:27;3.38;;;1.27;;
47103;SDS011;32853;52.164;5.400;2023-08-06T14:44:07;4.88;;;1.83;;
47103;SDS011;32853;52.164;5.400;2023-08-06T14:46:33;2.92;;;1.15;;
47103;SDS011;32853;52.164;5.400;2023-08-06T14:48:58;2.53;;;1.10;;
47103;SDS011;32853;52.164;5.400;2023-08-06T14:51:23;2.22;;;1.08;;
47103;SDS011;32853;52.164;5.400;2023-08-06T14:53:49;4.13;;;1.20;;
47103;SDS011;32853;52.164;5.400;2023-08-06T14:58:56;2.15;;;1.08;;
47103;SDS011;32853;52.164;5.400;2023-08-06T15:01:23;1.40;;;0.90;;
47103;SDS011;32853;52.164;5.400;2023-08-06T15:03:52;2.60;;;0.98;;
47103;SDS011;32853;52.164;5.400;2023-08-06T15:06:20;3.33;;;0.90;;
47103;SDS011;32853;52.164;5.400;2023-08-06T15:08:55;1.55;;;0.90;;
47103;SDS011;32853;52.164;5.400;2023-08-06T15:11:23;2.80;;;1.00;;
47103;SDS011;32853;52.164;5.400;2023-08-06T15:13:52;2.47;;;0.60;;
47103;SDS011;32853;52.164;5.400;2023-08-06T15:16:17;4.45;;;0.43;;
47103;SDS011;32853;52.164;5.400;2023-08-06T15:18:42;1.35;;;0.50;;
47103;SDS011;32853;52.164;5.400;2023-08-06T15:21:08;5.22;;;0.80;;
47103;SDS011;32853;52.164;5.400;2023-08-06T15:23:34;2.80;;;0.38;;
47103;SDS011;32853;52.164;5.400;2023-08-06T15:26:01;4.65;;;1.45;;
47103;SDS011;32853;52.164;5.400;2023-08-06T15:28:29;1.08;;;0.30;;
47103;SDS011;32853;52.164;5.400;2023-08-06T15:31:02;3.92;;;0.50;;
47103;SDS011;32853;52.164;5.400;2023-08-06T15:33:33;2.53;;;0.40;;
47103;SDS011;32853;52.164;5.400;2023-08-06T15:35:59;3.53;;;0.30;;
47103;SDS011;32853;52.164;5.400;2023-08-06T15:38:26;3.00;;;0.30;;
47103;SDS011;32853;52.164;5.400;2023-08-06T15:40:51;7.13;;;0.50;;
47103;SDS011;32853;52.164;5.400;2023-08-06T15:43:16;2.15;;;0.75;;
47103;SDS011;32853;52.164;5.400;2023-08-06T15:45:42;2.65;;;0.40;;
47103;SDS011;32853;52.164;5.400;2023-08-06T15:48:07;5.50;;;0.35;;
47103;SDS011;32853;52.164;5.400;2023-08-06T15:50:36;6.55;;;0.35;;
47103;SDS011;32853;52.164;5.400;2023-08-06T15:53:02;9.73;;;1.95;;
47103;SDS011;32853;52.164;5.400;2023-08-06T15:55:28;4.00;;;0.40;;
47103;SDS011;32853;52.164;5.400;2023-08-06T15:57:53;7.18;;;1.52;;
47103;SDS011;32853;52.164;5.400;2023-08-06T16:00:20;5.72;;;0.40;;
47103;SDS011;32853;52.164;5.400;2023-08-06T16:02:45;7.32;;;0.50;;
47103;SDS011;32853;52.164;5.400;2023-08-06T16:05:11;3.08;;;0.60;;